sensor_id;sensor_type;location;lat;lon;timestamp;pressure;altitude;pressure_sealevel;temperature;humidity
71476;BME280;59286;59.274;17.974;2023-02-08T00:01:37;102876.31;;;2.06;96.68
71476;BME280;59286;59.274;17.974;2023-02-08T00:04:02;102880.69;;;2.05;96.73
71476;BME280;59286;59.274;17.974;2023-02-08T00:06:28;102882.28;;;2.06;96.72
71476;BME280;59286;59.274;17.974;2023-02-08T00:08:53;102879.25;;;2.03;96.72
71476;BME280;59286;59.274;17.974;2023-02-08T00:11:18;102888.25;;;2.07;96.76
71476;BME280;59286;59.274;17.974;2023-02-08T00:13:44;102891.47;;;2.09;96.89
71476;BME280;59286;59.274;17.974;2023-02-08T00:16:11;102892.09;;;2.11;96.49
71476;BME280;59286;59.274;17.974;2023-02-08T00:18:37;102908.22;;;2.13;96.91
71476;BME280;59286;59.274;17.974;2023-02-08T00:21:07;102895.13;;;2.14;96.77
71476;BME280;59286;59.274;17.974;2023-02-08T00:23:32;102906.53;;;2.20;96.42
71476;BME280;59286;59.274;17.974;2023-02-08T00:25:58;102896.28;;;2.12;96.74
71476;BME280;59286;59.274;17.974;2023-02-08T00:28:23;102894.56;;;2.19;96.60
71476;BME280;59286;59.274;17.974;2023-02-08T00:30:48;102878.06;;;2.20;96.27
71476;BME280;59286;59.274;17.974;2023-02-08T00:33:14;102888.03;;;2.23;96.55
71476;BME280;59286;59.274;17.974;2023-02-08T00:35:39;102884.22;;;2.19;96.51
71476;BME280;59286;59.274;17.974;2023-02-08T00:38:06;102885.81;;;2.20;96.45
71476;BME280;59286;59.274;17.974;2023-02-08T00:40:31;102880.84;;;2.18;96.49
71476;BME280;59286;59.274;17.974;2023-02-08T00:42:56;102862.84;;;2.10;96.10
71476;BME280;59286;59.274;17.974;2023-02-08T00:45:22;102878.06;;;2.20;96.34
71476;BME280;59286;59.274;17.974;2023-02-08T00:47:47;102869.94;;;2.23;95.91
71476;BME280;59286;59.274;17.974;2023-02-08T00:50:13;102867.72;;;2.20;96.11
71476;BME280;59286;59.274;17.974;2023-02-08T00:52:38;102867.28;;;2.16;95.95
71476;BME280;59286;59.274;17.974;2023-02-08T00:55:04;102852.13;;;2.13;96.06
71476;BME280;59286;59.274;17.974;2023-02-08T00:57:34;102867.44;;;2.15;96.25
71476;BME280;59286;59.274;17.974;2023-02-08T00:59:59;102875.34;;;2.07;96.80
71476;BME280;59286;59.274;17.974;2023-02-08T01:02:25;102860.97;;;2.04;97.00
71476;BME280;59286;59.274;17.974;2023-02-08T01:04:50;102866.56;;;2.08;96.93
71476;BME280;59286;59.274;17.974;2023-02-08T01:07:16;102858.47;;;2.11;96.66
71476;BME280;59286;59.274;17.974;2023-02-08T01:09:41;102873.25;;;2.17;96.74
71476;BME280;59286;59.274;17.974;2023-02-08T01:12:07;102856.84;;;2.10;97.30
71476;BME280;59286;59.274;17.974;2023-02-08T01:14:32;102879.31;;;2.24;97.14
71476;BME280;59286;59.274;17.974;2023-02-08T01:16:58;102874.13;;;2.24;96.99
71476;BME280;59286;59.274;17.974;2023-02-08T01:19:23;102859.03;;;2.27;96.88
71476;BME280;59286;59.274;17.974;2023-02-08T01:21:48;102858.84;;;2.29;96.98
71476;BME280;59286;59.274;17.974;2023-02-08T01:24:14;102855.84;;;2.25;97.24
71476;BME280;59286;59.274;17.974;2023-02-08T01:26:39;102861.63;;;2.27;97.85
71476;BME280;59286;59.274;17.974;2023-02-08T01:29:05;102867.06;;;2.32;97.53
71476;BME280;59286;59.274;17.974;2023-02-08T01:31:33;102866.25;;;2.32;97.53
71476;BME280;59286;59.274;17.974;2023-02-08T01:33:59;102866.06;;;2.33;97.73
71476;BME280;59286;59.274;17.974;2023-02-08T01:36:26;102857.69;;;2.31;97.79
71476;BME280;59286;59.274;17.974;2023-02-08T01:38:52;102857.50;;;2.33;97.72
71476;BME280;59286;59.274;17.974;2023-02-08T01:41:30;102855.16;;;2.38;97.57
71476;BME280;59286;59.274;17.974;2023-02-08T01:46:43;102853.91;;;2.34;97.58
71476;BME280;59286;59.274;17.974;2023-02-08T01:49:13;102853.19;;;2.40;97.70
71476;BME280;59286;59.274;17.974;2023-02-08T01:54:23;102859.53;;;2.37;98.04
71476;BME280;59286;59.274;17.974;2023-02-08T01:56:50;102839.63;;;2.38;97.99
71476;BME280;59286;59.274;17.974;2023-02-08T01:59:32;102841.41;;;2.37;98.34
71476;BME280;59286;59.274;17.974;2023-02-08T02:01:58;102842.22;;;2.38;98.05
71476;BME280;59286;59.274;17.974;2023-02-08T02:04:25;102842.84;;;2.40;97.90
71476;BME280;59286;59.274;17.974;2023-02-08T02:06:58;102851.56;;;2.39;98.22
71476;BME280;59286;59.274;17.974;2023-02-08T02:09:47;102852.47;;;2.46;97.92
71476;BME280;59286;59.274;17.974;2023-02-08T02:12:15;102840.13;;;2.48;97.91
71476;BME280;59286;59.274;17.974;2023-02-08T02:14:42;102845.66;;;2.45;97.96
71476;BME280;59286;59.274;17.974;2023-02-08T02:17:10;102854.03;;;2.47;98.05
71476;BME280;59286;59.274;17.974;2023-02-08T02:36:28;102868.00;;;2.46;97.74
71476;BME280;59286;59.274;17.974;2023-02-08T02:44:44;102877.41;;;2.53;97.85
71476;BME280;59286;59.274;17.974;2023-02-08T02:47:39;102870.09;;;2.57;97.32
71476;BME280;59286;59.274;17.974;2023-02-08T02:50:27;102856.81;;;2.45;97.51
71476;BME280;59286;59.274;17.974;2023-02-08T02:53:02;102856.03;;;2.45;97.77
71476;BME280;59286;59.274;17.974;2023-02-08T02:55:32;102876.00;;;2.51;97.74
71476;BME280;59286;59.274;17.974;2023-02-08T02:58:01;102868.19;;;2.44;98.08
71476;BME280;59286;59.274;17.974;2023-02-08T03:00:28;102880.66;;;2.41;98.22
71476;BME280;59286;59.274;17.974;2023-02-08T03:02:55;102869.69;;;2.39;98.00
71476;BME280;59286;59.274;17.974;2023-02-08T03:05:23;102871.06;;;2.35;98.27
71476;BME280;59286;59.274;17.974;2023-02-08T03:10:45;102873.91;;;2.40;98.03
71476;BME280;59286;59.274;17.974;2023-02-08T03:21:42;102859.53;;;2.37;98.58
71476;BME280;59286;59.274;17.974;2023-02-08T03:24:23;102855.78;;;2.40;98.15
71476;BME280;59286;59.274;17.974;2023-02-08T03:27:09;102858.41;;;2.46;97.99
71476;BME280;59286;59.274;17.974;2023-02-08T03:32:21;102857.44;;;2.47;97.84
71476;BME280;59286;59.274;17.974;2023-02-08T03:37:21;102874.75;;;2.47;98.36
71476;BME280;59286;59.274;17.974;2023-02-08T03:39:51;102869.97;;;2.44;98.52
71476;BME280;59286;59.274;17.974;2023-02-08T03:42:22;102875.19;;;2.50;98.14
71476;BME280;59286;59.274;17.974;2023-02-08T03:44:56;102866.06;;;2.54;97.99
71476;BME280;59286;59.274;17.974;2023-02-08T03:47:33;102866.44;;;2.51;97.67
71476;BME280;59286;59.274;17.974;2023-02-08T03:50:05;102865.63;;;2.51;97.34
71476;BME280;59286;59.274;17.974;2023-02-08T03:52:33;102875.00;;;2.52;97.54
71476;BME280;59286;59.274;17.974;2023-02-08T03:55:03;102886.34;;;2.51;98.06
71476;BME280;59286;59.274;17.974;2023-02-08T03:57:34;102891.72;;;2.49;98.15
71476;BME280;59286;59.274;17.974;2023-02-08T04:00:07;102891.09;;;2.47;97.98
71476;BME280;59286;59.274;17.974;2023-02-08T04:02:37;102889.34;;;2.54;97.95
71476;BME280;59286;59.274;17.974;2023-02-08T04:05:04;102887.34;;;2.50;97.77
71476;BME280;59286;59.274;17.974;2023-02-08T04:07:30;102894.72;;;2.53;97.92
71476;BME280;59286;59.274;17.974;2023-02-08T04:09:56;102892.19;;;2.59;97.46
71476;BME280;59286;59.274;17.974;2023-02-08T04:12:21;102893.31;;;2.50;97.71
71476;BME280;59286;59.274;17.974;2023-02-08T04:14:46;102899.91;;;2.53;97.66
71476;BME280;59286;59.274;17.974;2023-02-08T04:17:12;102899.47;;;2.49;98.02
71476;BME280;59286;59.274;17.974;2023-02-08T04:19:37;102905.09;;;2.53;97.43
71476;BME280;59286;59.274;17.974;2023-02-08T04:22:02;102902.53;;;2.59;97.51
71476;BME280;59286;59.274;17.974;2023-02-08T04:24:28;102894.78;;;2.59;97.38
71476;BME280;59286;59.274;17.974;2023-02-08T04:26:53;102889.94;;;2.50;97.32
71476;BME280;59286;59.274;17.974;2023-02-08T04:29:18;102903.47;;;2.52;97.80
71476;BME280;59286;59.274;17.974;2023-02-08T04:31:43;102907.66;;;2.53;97.90
71476;BME280;59286;59.274;17.974;2023-02-08T04:34:09;102895.88;;;2.50;97.85
71476;BME280;59286;59.274;17.974;2023-02-08T04:36:34;102893.50;;;2.49;98.13
71476;BME280;59286;59.274;17.974;2023-02-08T04:39:00;102895.25;;;2.48;97.96
71476;BME280;59286;59.274;17.974;2023-02-08T04:41:25;102897.50;;;2.51;98.17
71476;BME280;59286;59.274;17.974;2023-02-08T04:43:50;102896.69;;;2.51;97.84
71476;BME280;59286;59.274;17.974;2023-02-08T04:46:16;102920.22;;;2.56;98.08
71476;BME280;59286;59.274;17.974;2023-02-08T04:48:41;102928.81;;;2.56;98.56
71476;BME280;59286;59.274;17.974;2023-02-08T04:51:06;102923.88;;;2.61;97.94
71476;BME280;59286;59.274;17.974;2023-02-08T04:53:32;102911.94;;;2.60;98.08
71476;BME280;59286;59.274;17.974;2023-02-08T04:55:57;102914.91;;;2.57;97.87
71476;BME280;59286;59.274;17.974;2023-02-08T04:58:22;102916.91;;;2.62;98.00
71476;BME280;59286;59.274;17.974;2023-02-08T05:00:48;102937.25;;;2.65;98.41
71476;BME280;59286;59.274;17.974;2023-02-08T05:03:14;102924.50;;;2.63;98.30
71476;BME280;59286;59.274;17.974;2023-02-08T05:05:40;102916.38;;;2.66;98.35
71476;BME280;59286;59.274;17.974;2023-02-08T05:08:05;102919.19;;;2.71;98.14
71476;BME280;59286;59.274;17.974;2023-02-08T05:10:31;102921.78;;;2.71;98.67
71476;BME280;59286;59.274;17.974;2023-02-08T05:12:56;102912.97;;;2.66;98.34
71476;BME280;59286;59.274;17.974;2023-02-08T05:15:22;102915.81;;;2.71;98.82
71476;BME280;59286;59.274;17.974;2023-02-08T05:17:48;102916.81;;;2.70;98.93
71476;BME280;59286;59.274;17.974;2023-02-08T05:20:13;102915.00;;;2.70;99.25
71476;BME280;59286;59.274;17.974;2023-02-08T05:22:39;102899.66;;;2.69;98.97
71476;BME280;59286;59.274;17.974;2023-02-08T05:25:05;102909.28;;;2.75;98.60
71476;BME280;59286;59.274;17.974;2023-02-08T05:27:30;102899.47;;;2.70;98.93
71476;BME280;59286;59.274;17.974;2023-02-08T05:29:56;102894.97;;;2.79;98.74
71476;BME280;59286;59.274;17.974;2023-02-08T05:32:21;102899.72;;;2.75;99.34
71476;BME280;59286;59.274;17.974;2023-02-08T05:34:47;102886.34;;;2.72;99.36
71476;BME280;59286;59.274;17.974;2023-02-08T05:37:13;102904.91;;;2.75;99.57
71476;BME280;59286;59.274;17.974;2023-02-08T05:39:38;102901.31;;;2.76;99.80
71476;BME280;59286;59.274;17.974;2023-02-08T05:42:04;102884.19;;;2.75;99.28
71476;BME280;59286;59.274;17.974;2023-02-08T05:44:29;102888.00;;;2.79;99.47
71476;BME280;59286;59.274;17.974;2023-02-08T05:46:54;102892.63;;;2.84;99.43
71476;BME280;59286;59.274;17.974;2023-02-08T05:49:20;102885.47;;;2.86;99.34
71476;BME280;59286;59.274;17.974;2023-02-08T05:51:45;102875.84;;;2.80;99.30
71476;BME280;59286;59.274;17.974;2023-02-08T05:54:10;102890.03;;;2.84;99.24
71476;BME280;59286;59.274;17.974;2023-02-08T05:56:36;102881.28;;;2.85;99.10
71476;BME280;59286;59.274;17.974;2023-02-08T05:59:02;102897.06;;;2.90;99.35
71476;BME280;59286;59.274;17.974;2023-02-08T06:01:28;102892.88;;;2.89;99.52
71476;BME280;59286;59.274;17.974;2023-02-08T06:03:53;102888.28;;;2.91;99.65
71476;BME280;59286;59.274;17.974;2023-02-08T06:06:19;102891.88;;;2.90;99.77
71476;BME280;59286;59.274;17.974;2023-02-08T06:08:45;102888.28;;;2.91;99.77
71476;BME280;59286;59.274;17.974;2023-02-08T06:11:10;102869.13;;;2.85;99.21
71476;BME280;59286;59.274;17.974;2023-02-08T06:13:36;102871.59;;;2.93;99.76
71476;BME280;59286;59.274;17.974;2023-02-08T06:16:01;102878.19;;;2.96;99.59
71476;BME280;59286;59.274;17.974;2023-02-08T06:18:26;102876.56;;;2.95;100.00
71476;BME280;59286;59.274;17.974;2023-02-08T06:20:52;102867.81;;;2.96;99.82
71476;BME280;59286;59.274;17.974;2023-02-08T06:23:19;102867.44;;;2.99;99.33
71476;BME280;59286;59.274;17.974;2023-02-08T06:25:44;102861.28;;;3.00;99.38
71476;BME280;59286;59.274;17.974;2023-02-08T06:28:10;102871.25;;;3.03;99.03
71476;BME280;59286;59.274;17.974;2023-02-08T06:30:36;102883.69;;;3.14;98.42
71476;BME280;59286;59.274;17.974;2023-02-08T06:33:03;102869.31;;;3.12;98.62
71476;BME280;59286;59.274;17.974;2023-02-08T06:35:28;102871.50;;;3.08;98.66
71476;BME280;59286;59.274;17.974;2023-02-08T06:37:54;102881.09;;;3.14;98.66
71476;BME280;59286;59.274;17.974;2023-02-08T06:40:19;102884.44;;;3.08;98.55
71476;BME280;59286;59.274;17.974;2023-02-08T06:42:46;102888.06;;;3.14;98.35
71476;BME280;59286;59.274;17.974;2023-02-08T06:45:11;102891.06;;;3.17;98.32
71476;BME280;59286;59.274;17.974;2023-02-08T06:47:37;102885.44;;;3.07;98.65
71476;BME280;59286;59.274;17.974;2023-02-08T06:50:02;102884.44;;;3.08;98.74
71476;BME280;59286;59.274;17.974;2023-02-08T06:52:27;102898.00;;;3.10;98.95
71476;BME280;59286;59.274;17.974;2023-02-08T06:54:53;102897.03;;;3.11;98.62
71476;BME280;59286;59.274;17.974;2023-02-08T06:57:18;102890.84;;;3.12;98.41
71476;BME280;59286;59.274;17.974;2023-02-08T06:59:44;102880.50;;;3.12;98.75
71476;BME280;59286;59.274;17.974;2023-02-08T07:02:12;102884.94;;;3.18;98.77
71476;BME280;59286;59.274;17.974;2023-02-08T07:04:37;102888.94;;;3.21;98.48
71476;BME280;59286;59.274;17.974;2023-02-08T07:07:03;102899.25;;;3.14;99.06
71476;BME280;59286;59.274;17.974;2023-02-08T07:09:28;102897.81;;;3.12;99.06
71476;BME280;59286;59.274;17.974;2023-02-08T07:11:53;102896.47;;;3.16;99.11
71476;BME280;59286;59.274;17.974;2023-02-08T07:14:18;102886.50;;;3.19;98.51
71476;BME280;59286;59.274;17.974;2023-02-08T07:16:44;102899.53;;;3.26;98.49
71476;BME280;59286;59.274;17.974;2023-02-08T07:19:09;102888.13;;;3.20;98.47
71476;BME280;59286;59.274;17.974;2023-02-08T07:21:35;102893.31;;;3.20;98.88
71476;BME280;59286;59.274;17.974;2023-02-08T07:24:00;102892.38;;;3.28;98.51
71476;BME280;59286;59.274;17.974;2023-02-08T07:26:25;102889.97;;;3.26;98.64
71476;BME280;59286;59.274;17.974;2023-02-08T07:28:51;102900.38;;;3.33;98.37
71476;BME280;59286;59.274;17.974;2023-02-08T07:31:16;102897.78;;;3.33;98.13
71476;BME280;59286;59.274;17.974;2023-02-08T07:33:42;102902.53;;;3.29;98.29
71476;BME280;59286;59.274;17.974;2023-02-08T07:36:09;102901.41;;;3.38;98.59
71476;BME280;59286;59.274;17.974;2023-02-08T07:38:36;102905.56;;;3.33;98.60
71476;BME280;59286;59.274;17.974;2023-02-08T07:41:07;102914.97;;;3.40;98.53
71476;BME280;59286;59.274;17.974;2023-02-08T07:43:34;102912.94;;;3.36;98.53
71476;BME280;59286;59.274;17.974;2023-02-08T07:46:13;102918.78;;;3.44;98.31
71476;BME280;59286;59.274;17.974;2023-02-08T07:48:39;102903.03;;;3.46;97.83
71476;BME280;59286;59.274;17.974;2023-02-08T07:51:04;102896.44;;;3.43;97.81
71476;BME280;59286;59.274;17.974;2023-02-08T07:53:30;102911.63;;;3.46;97.76
71476;BME280;59286;59.274;17.974;2023-02-08T07:55:55;102913.47;;;3.52;97.91
71476;BME280;59286;59.274;17.974;2023-02-08T07:58:21;102895.69;;;3.49;97.48
71476;BME280;59286;59.274;17.974;2023-02-08T08:00:46;102916.28;;;3.57;97.06
71476;BME280;59286;59.274;17.974;2023-02-08T08:03:12;102910.28;;;3.57;97.21
71476;BME280;59286;59.274;17.974;2023-02-08T08:05:39;102920.72;;;3.63;97.18
71476;BME280;59286;59.274;17.974;2023-02-08T08:08:04;102919.31;;;3.67;96.91
71476;BME280;59286;59.274;17.974;2023-02-08T08:10:30;102914.31;;;3.66;96.72
71476;BME280;59286;59.274;17.974;2023-02-08T08:12:55;102909.94;;;3.66;97.10
71476;BME280;59286;59.274;17.974;2023-02-08T08:15:20;102907.97;;;3.68;96.60
71476;BME280;59286;59.274;17.974;2023-02-08T08:17:46;102915.53;;;3.70;96.82
71476;BME280;59286;59.274;17.974;2023-02-08T08:20:11;102919.16;;;3.75;96.55
71476;BME280;59286;59.274;17.974;2023-02-08T08:22:36;102911.59;;;3.80;95.98
71476;BME280;59286;59.274;17.974;2023-02-08T08:25:02;102906.41;;;3.80;96.09
71476;BME280;59286;59.274;17.974;2023-02-08T08:27:27;102908.84;;;3.82;95.70
71476;BME280;59286;59.274;17.974;2023-02-08T08:29:53;102913.22;;;3.81;95.88
71476;BME280;59286;59.274;17.974;2023-02-08T08:32:18;102913.22;;;3.81;95.63
71476;BME280;59286;59.274;17.974;2023-02-08T08:34:43;102929.59;;;3.88;95.60
71476;BME280;59286;59.274;17.974;2023-02-08T08:37:09;102929.41;;;3.83;95.82
71476;BME280;59286;59.274;17.974;2023-02-08T08:39:34;102928.03;;;3.87;95.17
71476;BME280;59286;59.274;17.974;2023-02-08T08:42:01;102920.78;;;3.76;95.09
71476;BME280;59286;59.274;17.974;2023-02-08T08:44:28;102908.78;;;3.75;95.28
71476;BME280;59286;59.274;17.974;2023-02-08T08:46:57;102938.81;;;3.97;94.95
71476;BME280;59286;59.274;17.974;2023-02-08T08:49:23;102947.63;;;4.03;94.90
71476;BME280;59286;59.274;17.974;2023-02-08T08:51:48;102939.84;;;3.97;94.73
71476;BME280;59286;59.274;17.974;2023-02-08T08:54:15;102938.47;;;4.01;94.81
71476;BME280;59286;59.274;17.974;2023-02-08T08:56:40;102931.63;;;3.93;94.86
71476;BME280;59286;59.274;17.974;2023-02-08T08:59:06;102930.88;;;4.06;94.62
71476;BME280;59286;59.274;17.974;2023-02-08T09:01:31;102926.09;;;4.03;94.48
71476;BME280;59286;59.274;17.974;2023-02-08T09:03:56;102931.69;;;4.06;94.57
71476;BME280;59286;59.274;17.974;2023-02-08T09:06:21;102923.09;;;4.06;94.48
71476;BME280;59286;59.274;17.974;2023-02-08T09:08:47;102924.13;;;4.05;94.09
71476;BME280;59286;59.274;17.974;2023-02-08T09:11:13;102924.13;;;4.11;94.31
71476;BME280;59286;59.274;17.974;2023-02-08T09:13:40;102925.91;;;4.11;94.27
71476;BME280;59286;59.274;17.974;2023-02-08T09:16:14;102921.72;;;4.10;94.12
71476;BME280;59286;59.274;17.974;2023-02-08T09:18:40;102919.53;;;4.13;94.23
71476;BME280;59286;59.274;17.974;2023-02-08T09:21:11;102924.53;;;4.15;94.00
71476;BME280;59286;59.274;17.974;2023-02-08T09:23:37;102929.53;;;4.16;93.98
71476;BME280;59286;59.274;17.974;2023-02-08T09:26:07;102932.31;;;4.15;94.13
71476;BME280;59286;59.274;17.974;2023-02-08T09:28:33;102943.91;;;4.19;93.49
71476;BME280;59286;59.274;17.974;2023-02-08T09:31:06;102940.91;;;4.22;93.86
71476;BME280;59286;59.274;17.974;2023-02-08T09:33:31;102944.13;;;4.24;93.40
71476;BME280;59286;59.274;17.974;2023-02-08T09:35:57;102946.75;;;4.30;93.61
71476;BME280;59286;59.274;17.974;2023-02-08T09:38:22;102946.53;;;4.25;93.57
71476;BME280;59286;59.274;17.974;2023-02-08T09:43:40;102947.94;;;4.28;93.13
71476;BME280;59286;59.274;17.974;2023-02-08T09:46:18;102949.56;;;4.35;93.17
71476;BME280;59286;59.274;17.974;2023-02-08T09:48:45;102949.00;;;4.40;92.88
71476;BME280;59286;59.274;17.974;2023-02-08T09:53:43;102943.41;;;4.43;92.85
71476;BME280;59286;59.274;17.974;2023-02-08T09:56:14;102915.59;;;4.30;92.92
71476;BME280;59286;59.274;17.974;2023-02-08T09:58:42;102944.81;;;4.45;92.60
71476;BME280;59286;59.274;17.974;2023-02-08T10:01:19;102947.00;;;4.42;92.45
71476;BME280;59286;59.274;17.974;2023-02-08T10:03:46;102959.97;;;4.42;92.68
71476;BME280;59286;59.274;17.974;2023-02-08T10:06:16;102955.97;;;4.46;92.53
71476;BME280;59286;59.274;17.974;2023-02-08T10:08:44;102940.59;;;4.38;92.31
71476;BME280;59286;59.274;17.974;2023-02-08T10:16:35;102962.38;;;4.50;92.27
71476;BME280;59286;59.274;17.974;2023-02-08T10:19:30;102973.78;;;4.49;92.40
71476;BME280;59286;59.274;17.974;2023-02-08T10:25:04;102958.19;;;4.49;92.16
71476;BME280;59286;59.274;17.974;2023-02-08T10:28:02;102949.81;;;4.47;92.35
71476;BME280;59286;59.274;17.974;2023-02-08T10:30:56;102943.22;;;4.51;92.21
71476;BME280;59286;59.274;17.974;2023-02-08T10:33:25;102952.00;;;4.50;92.02
71476;BME280;59286;59.274;17.974;2023-02-08T10:35:54;102951.63;;;4.53;92.21
71476;BME280;59286;59.274;17.974;2023-02-08T10:40:57;102935.44;;;4.57;92.08
71476;BME280;59286;59.274;17.974;2023-02-08T10:43:36;102921.47;;;4.65;91.71
71476;BME280;59286;59.274;17.974;2023-02-08T10:49:21;102924.09;;;4.78;91.51
71476;BME280;59286;59.274;17.974;2023-02-08T10:51:49;102915.50;;;4.84;90.88
71476;BME280;59286;59.274;17.974;2023-02-08T10:54:15;102927.69;;;4.90;90.80
71476;BME280;59286;59.274;17.974;2023-02-08T10:56:57;102921.13;;;4.94;90.74
71476;BME280;59286;59.274;17.974;2023-02-08T10:59:29;102912.50;;;5.00;90.72
71476;BME280;59286;59.274;17.974;2023-02-08T11:01:57;102913.31;;;5.01;90.52
71476;BME280;59286;59.274;17.974;2023-02-08T11:04:22;102905.09;;;5.04;90.52
71476;BME280;59286;59.274;17.974;2023-02-08T11:06:49;102912.31;;;5.08;90.47
71476;BME280;59286;59.274;17.974;2023-02-08T11:09:26;102904.72;;;5.07;90.24
71476;BME280;59286;59.274;17.974;2023-02-08T11:11:52;102892.31;;;5.02;90.26
71476;BME280;59286;59.274;17.974;2023-02-08T11:14:23;102905.09;;;5.10;89.51
71476;BME280;59286;59.274;17.974;2023-02-08T11:16:54;102900.50;;;5.12;89.75
71476;BME280;59286;59.274;17.974;2023-02-08T11:19:24;102899.69;;;5.12;89.73
71476;BME280;59286;59.274;17.974;2023-02-08T11:21:52;102885.91;;;5.05;89.37
71476;BME280;59286;59.274;17.974;2023-02-08T11:24:41;102890.94;;;5.13;89.46
71476;BME280;59286;59.274;17.974;2023-02-08T11:27:37;102890.13;;;5.12;89.59
71476;BME280;59286;59.274;17.974;2023-02-08T11:32:41;102899.91;;;5.10;89.45
71476;BME280;59286;59.274;17.974;2023-02-08T11:35:25;102902.31;;;5.12;89.43
71476;BME280;59286;59.274;17.974;2023-02-08T11:37:56;102894.31;;;5.13;89.56
71476;BME280;59286;59.274;17.974;2023-02-08T11:40:34;102894.91;;;5.09;89.62
71476;BME280;59286;59.274;17.974;2023-02-08T11:43:00;102891.50;;;5.08;89.49
71476;BME280;59286;59.274;17.974;2023-02-08T11:45:31;102895.13;;;5.07;89.61
71476;BME280;59286;59.274;17.974;2023-02-08T11:47:58;102881.94;;;4.96;89.82
71476;BME280;59286;59.274;17.974;2023-02-08T11:50:34;102891.94;;;5.05;89.82
71476;BME280;59286;59.274;17.974;2023-02-08T11:53:21;102876.34;;;5.05;89.76
71476;BME280;59286;59.274;17.974;2023-02-08T11:56:15;102882.69;;;5.09;89.67
71476;BME280;59286;59.274;17.974;2023-02-08T11:58:41;102874.72;;;5.04;90.00
71476;BME280;59286;59.274;17.974;2023-02-08T12:01:18;102874.91;;;5.09;89.93
71476;BME280;59286;59.274;17.974;2023-02-08T12:03:45;102877.09;;;5.06;89.72
71476;BME280;59286;59.274;17.974;2023-02-08T12:11:41;102867.94;;;5.03;90.06
71476;BME280;59286;59.274;17.974;2023-02-08T12:19:23;102873.31;;;5.08;89.74
71476;BME280;59286;59.274;17.974;2023-02-08T12:22:20;102873.91;;;5.10;89.49
71476;BME280;59286;59.274;17.974;2023-02-08T12:28:08;102870.31;;;5.11;89.56
71476;BME280;59286;59.274;17.974;2023-02-08T12:33:18;102859.50;;;5.08;89.43
71476;BME280;59286;59.274;17.974;2023-02-08T12:45:01;102854.31;;;5.14;89.23
71476;BME280;59286;59.274;17.974;2023-02-08T12:50:47;102852.31;;;5.16;89.10
71476;BME280;59286;59.274;17.974;2023-02-08T12:53:26;102850.72;;;5.15;89.06
71476;BME280;59286;59.274;17.974;2023-02-08T12:55:57;102852.31;;;5.16;88.72
71476;BME280;59286;59.274;17.974;2023-02-08T12:58:29;102850.72;;;5.15;88.74
71476;BME280;59286;59.274;17.974;2023-02-08T13:01:01;102848.72;;;5.11;88.95
71476;BME280;59286;59.274;17.974;2023-02-08T13:03:54;102845.31;;;5.10;88.74
71476;BME280;59286;59.274;17.974;2023-02-08T13:06:26;102848.72;;;5.17;89.03
71476;BME280;59286;59.274;17.974;2023-02-08T13:14:40;102836.50;;;5.11;88.79
71476;BME280;59286;59.274;17.974;2023-02-08T13:17:50;102840.72;;;5.12;88.66
71476;BME280;59286;59.274;17.974;2023-02-08T13:23:09;102839.31;;;5.10;89.17
71476;BME280;59286;59.274;17.974;2023-02-08T13:25:37;102835.91;;;5.09;88.93
71476;BME280;59286;59.274;17.974;2023-02-08T13:28:05;102822.34;;;5.07;89.10
71476;BME280;59286;59.274;17.974;2023-02-08T13:30:34;102808.75;;;4.99;89.04
71476;BME280;59286;59.274;17.974;2023-02-08T13:33:15;102812.72;;;5.08;89.19
71476;BME280;59286;59.274;17.974;2023-02-08T13:35:42;102806.16;;;5.05;89.14
71476;BME280;59286;59.274;17.974;2023-02-08T13:38:29;102808.75;;;5.05;89.29
71476;BME280;59286;59.274;17.974;2023-02-08T13:41:16;102795.94;;;5.04;89.09
71476;BME280;59286;59.274;17.974;2023-02-08T13:46:26;102766.78;;;4.95;89.29
71476;BME280;59286;59.274;17.974;2023-02-08T13:48:56;102778.34;;;5.06;89.06
71476;BME280;59286;59.274;17.974;2023-02-08T13:59:03;102767.34;;;5.04;89.10
71476;BME280;59286;59.274;17.974;2023-02-08T14:01:31;102762.78;;;4.99;89.37
71476;BME280;59286;59.274;17.974;2023-02-08T14:06:33;102770.75;;;5.04;89.49
71476;BME280;59286;59.274;17.974;2023-02-08T14:09:20;102772.00;;;5.02;89.39
71476;BME280;59286;59.274;17.974;2023-02-08T14:12:05;102763.19;;;4.96;89.50
71476;BME280;59286;59.274;17.974;2023-02-08T14:14:36;102767.00;;;4.93;89.45
71476;BME280;59286;59.274;17.974;2023-02-08T14:19:28;102750.00;;;4.91;89.69
71476;BME280;59286;59.274;17.974;2023-02-08T14:24:29;102739.44;;;4.86;90.05
71476;BME280;59286;59.274;17.974;2023-02-08T14:27:07;102761.00;;;4.93;89.88
71476;BME280;59286;59.274;17.974;2023-02-08T14:29:33;102747.22;;;4.86;89.93
71476;BME280;59286;59.274;17.974;2023-02-08T14:31:59;102751.63;;;4.92;89.75
71476;BME280;59286;59.274;17.974;2023-02-08T14:34:31;102751.63;;;4.92;89.88
71476;BME280;59286;59.274;17.974;2023-02-08T14:39:34;102736.25;;;4.84;90.08
71476;BME280;59286;59.274;17.974;2023-02-08T14:42:05;102729.84;;;4.80;90.04
71476;BME280;59286;59.274;17.974;2023-02-08T14:49:48;102733.03;;;4.82;90.20
71476;BME280;59286;59.274;17.974;2023-02-08T14:52:21;102736.66;;;4.81;90.21
71476;BME280;59286;59.274;17.974;2023-02-08T14:54:53;102731.47;;;4.81;90.00
71476;BME280;59286;59.274;17.974;2023-02-08T14:57:29;102738.25;;;4.82;90.24
71476;BME280;59286;59.274;17.974;2023-02-08T15:00:00;102745.84;;;4.77;90.58
71476;BME280;59286;59.274;17.974;2023-02-08T15:02:27;102741.84;;;4.81;89.99
71476;BME280;59286;59.274;17.974;2023-02-08T15:04:57;102740.44;;;4.78;90.27
71476;BME280;59286;59.274;17.974;2023-02-08T15:10:15;102744.47;;;4.68;90.71
71476;BME280;59286;59.274;17.974;2023-02-08T15:12:49;102737.66;;;4.67;90.87